createdAt,value
2022-11-16T00:02:22.500Z,20.65
2022-11-16T00:04:54.781Z,18.52
2022-11-16T00:07:24.402Z,21.00
2022-11-16T00:09:53.988Z,20.55
2022-11-16T00:12:23.606Z,22.65
2022-11-16T00:14:54.166Z,23.00
2022-11-16T00:17:23.653Z,22.27
2022-11-16T00:19:55.842Z,21.67
2022-11-16T00:22:25.407Z,23.92
2022-11-16T00:24:54.940Z,25.90
2022-11-16T00:27:24.482Z,26.60
2022-11-16T00:29:54.012Z,24.98
2022-11-16T00:32:23.689Z,23.17
2022-11-16T00:34:55.792Z,23.40
2022-11-16T00:37:25.398Z,26.48
2022-11-16T00:39:55.008Z,22.90
2022-11-16T00:42:24.550Z,25.30
2022-11-16T00:44:54.188Z,22.67
2022-11-16T00:47:23.974Z,25.05
2022-11-16T00:49:56.175Z,26.95
2022-11-16T00:52:25.738Z,23.95
2022-11-16T00:54:55.266Z,27.17
2022-11-16T00:57:24.862Z,23.33
2022-11-16T00:59:54.460Z,23.98
2022-11-16T01:02:23.995Z,24.48
2022-11-16T01:04:56.218Z,24.75
2022-11-16T01:07:25.720Z,23.75
2022-11-16T01:09:55.322Z,22.60
2022-11-16T01:12:24.884Z,22.60
2022-11-16T01:14:54.421Z,18.80
2022-11-16T01:17:24.054Z,17.83
2022-11-16T01:19:56.479Z,18.42
2022-11-16T01:22:26.068Z,18.08
2022-11-16T01:24:55.773Z,18.88
2022-11-16T01:27:25.902Z,16.95
2022-11-16T01:29:55.479Z,18.90
2022-11-16T01:32:25.233Z,17.35
2022-11-16T01:34:57.430Z,16.60
2022-11-16T01:37:26.984Z,30.98
2022-11-16T01:39:56.697Z,14.88
2022-11-16T01:42:28.738Z,18.70
2022-11-16T01:45:05.287Z,15.02
2022-11-16T01:47:35.150Z,14.77
2022-11-16T01:50:14.492Z,15.20
2022-11-16T01:52:49.037Z,16.73
2022-11-16T01:55:19.486Z,15.35
2022-11-16T01:57:50.799Z,15.68
2022-11-16T02:00:21.380Z,19.55
2022-11-16T02:02:51.038Z,18.77
2022-11-16T02:05:29.458Z,16.10
2022-11-16T02:08:25.712Z,16.33
2022-11-16T02:11:22.194Z,17.45
2022-11-16T02:14:04.651Z,16.15
2022-11-16T02:16:42.199Z,19.20
2022-11-16T02:19:38.808Z,18.38
2022-11-16T02:22:24.675Z,17.58
2022-11-16T02:25:03.396Z,19.20
2022-11-16T02:27:59.908Z,18.75
2022-11-16T02:30:32.277Z,14.88
2022-11-16T02:33:06.874Z,15.63
2022-11-16T02:35:41.816Z,14.55
2022-11-16T02:38:16.193Z,13.73
2022-11-16T02:40:49.386Z,16.75
2022-11-16T02:43:23.999Z,16.95
2022-11-16T02:45:59.847Z,11.35
2022-11-16T02:48:37.675Z,15.57
2022-11-16T02:51:09.608Z,13.15
2022-11-16T02:53:44.251Z,11.57
2022-11-16T02:56:16.123Z,8.73
2022-11-16T02:58:46.259Z,10.15
2022-11-16T03:01:26.362Z,12.63
2022-11-16T03:04:00.383Z,11.00
2022-11-16T03:06:34.135Z,11.95
2022-11-16T03:11:50.401Z,10.30
2022-11-16T03:14:25.477Z,11.48
2022-11-16T03:16:59.907Z,11.50
2022-11-16T03:19:42.914Z,9.60
2022-11-16T03:22:17.386Z,11.05
2022-11-16T03:24:47.328Z,11.35
2022-11-16T03:27:28.628Z,11.65
2022-11-16T03:30:05.728Z,7.43
2022-11-16T03:32:46.696Z,9.88
2022-11-16T03:35:22.437Z,11.88
2022-11-16T03:37:54.971Z,10.52
2022-11-16T03:40:28.154Z,15.45
2022-11-16T03:42:59.173Z,8.43
2022-11-16T03:45:29.474Z,10.98
2022-11-16T03:48:01.700Z,15.25
2022-11-16T03:50:32.494Z,10.27
2022-11-16T03:53:02.069Z,11.57
2022-11-16T03:55:31.677Z,9.80
2022-11-16T03:58:01.283Z,19.20
2022-11-16T04:00:30.945Z,11.13
2022-11-16T04:03:03.185Z,11.18
2022-11-16T04:05:45.163Z,11.60
2022-11-16T04:08:34.282Z,7.57
2022-11-16T04:11:16.535Z,10.40
2022-11-16T04:13:58.946Z,17.55
2022-11-16T04:16:40.976Z,10.25
2022-11-16T04:19:26.549Z,12.95
2022-11-16T04:22:11.469Z,14.50
2022-11-16T04:24:45.919Z,13.98
2022-11-16T04:27:30.856Z,15.82
2022-11-16T04:30:03.549Z,13.70
2022-11-16T04:32:45.904Z,12.77
2022-11-16T04:35:42.394Z,14.55
2022-11-16T04:38:11.977Z,14.38
2022-11-16T04:40:41.864Z,17.98
2022-11-16T04:43:09.317Z,14.18
2022-11-16T04:45:51.376Z,17.65
2022-11-16T04:48:22.232Z,14.07
2022-11-16T04:50:54.457Z,13.88
2022-11-16T04:53:27.139Z,17.10
2022-11-16T04:56:00.653Z,15.00
2022-11-16T04:58:30.751Z,14.90
2022-11-16T05:01:02.692Z,13.80
2022-11-16T05:03:32.354Z,12.18
2022-11-16T05:06:04.576Z,19.90
2022-11-16T05:08:34.424Z,20.77
2022-11-16T05:11:04.378Z,14.13
2022-11-16T05:13:33.920Z,11.20
2022-11-16T05:16:03.587Z,17.92
2022-11-16T05:18:33.598Z,16.70
2022-11-16T05:21:04.396Z,14.88
2022-11-16T05:23:46.481Z,15.30
2022-11-16T05:26:16.073Z,14.43
2022-11-16T05:28:45.775Z,13.55
2022-11-16T05:31:15.284Z,11.90
2022-11-16T05:33:45.204Z,16.20
2022-11-16T05:36:17.361Z,10.32
2022-11-16T05:38:46.849Z,13.52
2022-11-16T05:41:16.479Z,10.70
2022-11-16T05:43:46.073Z,9.43
2022-11-16T05:46:15.602Z,14.63
2022-11-16T05:48:45.101Z,14.45
2022-11-16T05:51:17.344Z,13.98
2022-11-16T05:53:47.052Z,12.52
2022-11-16T05:56:16.793Z,7.47
2022-11-16T05:58:47.137Z,15.10
2022-11-16T06:01:16.685Z,9.05
2022-11-16T06:03:46.178Z,12.27
2022-11-16T06:06:18.473Z,10.65
2022-11-16T06:08:48.091Z,8.68
2022-11-16T06:11:17.651Z,10.68
2022-11-16T06:13:47.270Z,7.18
2022-11-16T06:16:17.073Z,8.77
2022-11-16T06:18:48.671Z,7.85
2022-11-16T06:21:22.297Z,11.48
2022-11-16T06:23:51.881Z,12.55
2022-11-16T06:26:21.422Z,9.10
2022-11-16T06:28:51.112Z,10.05
2022-11-16T06:31:20.755Z,10.30
2022-11-16T06:33:51.680Z,9.80
2022-11-16T06:36:23.950Z,7.65
2022-11-16T06:38:53.601Z,7.78
2022-11-16T06:41:23.196Z,10.23
2022-11-16T06:43:52.875Z,10.80
2022-11-16T06:46:24.560Z,6.25
2022-11-16T06:48:54.284Z,11.13
2022-11-16T06:51:26.463Z,8.82
2022-11-16T06:56:39.719Z,7.22
2022-11-16T06:59:09.309Z,9.25
2022-11-16T07:01:39.156Z,8.50
2022-11-16T07:04:12.041Z,14.70
2022-11-16T07:06:44.414Z,10.57
2022-11-16T07:09:13.968Z,11.07
2022-11-16T07:11:43.608Z,10.13
2022-11-16T07:14:14.172Z,10.40
2022-11-16T07:16:43.669Z,9.20
2022-11-16T07:19:13.232Z,9.98
2022-11-16T07:21:45.504Z,8.27
2022-11-16T07:24:15.185Z,7.32
2022-11-16T07:26:44.713Z,9.63
2022-11-16T07:29:15.715Z,9.60
2022-11-16T07:31:45.262Z,18.30
2022-11-16T07:34:14.827Z,11.95
2022-11-16T07:36:47.337Z,8.65
2022-11-16T07:39:16.980Z,13.77
2022-11-16T07:41:47.107Z,7.40
2022-11-16T07:44:16.647Z,16.70
2022-11-16T07:46:47.861Z,13.18
2022-11-16T07:49:19.512Z,14.13
2022-11-16T07:51:51.706Z,9.52
2022-11-16T07:54:21.253Z,11.30
2022-11-16T07:56:51.275Z,10.88
2022-11-16T07:59:20.867Z,9.75
2022-11-16T08:01:50.919Z,10.85
2022-11-16T08:04:20.463Z,10.32
2022-11-16T08:06:52.937Z,14.10
2022-11-16T08:09:22.536Z,12.23
2022-11-16T08:11:52.188Z,9.65
2022-11-16T08:14:21.932Z,11.50
2022-11-16T08:16:51.464Z,15.55
2022-11-16T08:19:21.148Z,15.82
2022-11-16T08:21:53.346Z,14.27
2022-11-16T08:24:22.913Z,10.25
2022-11-16T08:26:52.488Z,14.73
2022-11-16T08:29:22.086Z,12.43
2022-11-16T08:31:51.659Z,13.15
2022-11-16T08:34:21.514Z,11.20
2022-11-16T08:36:53.696Z,12.13
2022-11-16T08:39:23.281Z,12.40
2022-11-16T08:41:53.754Z,9.15
2022-11-16T08:44:23.287Z,11.15
2022-11-16T08:46:52.823Z,14.25
2022-11-16T08:49:22.339Z,14.90
2022-11-16T08:51:54.561Z,11.32
2022-11-16T08:54:24.768Z,12.18
2022-11-16T08:56:54.286Z,13.15
2022-11-16T08:59:23.806Z,10.60
2022-11-16T09:01:53.362Z,15.57
2022-11-16T09:04:23.402Z,16.98
2022-11-16T09:06:55.667Z,15.18
2022-11-16T09:09:25.479Z,13.18
2022-11-16T09:11:57.592Z,13.65
2022-11-16T09:14:38.611Z,12.23
2022-11-16T09:17:08.757Z,15.27
2022-11-16T09:19:38.786Z,13.98
2022-11-16T09:22:11.379Z,10.63
2022-11-16T09:24:41.398Z,11.82
2022-11-16T09:27:11.574Z,8.95
2022-11-16T09:29:41.465Z,14.75
2022-11-16T09:32:11.716Z,14.38
2022-11-16T09:34:41.870Z,12.77
2022-11-16T09:37:15.407Z,14.77
2022-11-16T09:39:44.908Z,15.75
2022-11-16T09:42:25.982Z,19.17
2022-11-16T09:45:04.673Z,13.13
2022-11-16T09:47:49.239Z,15.93
2022-11-16T09:53:38.636Z,16.75
2022-11-16T09:56:15.450Z,16.27
2022-11-16T09:58:55.046Z,16.50
2022-11-16T10:01:29.419Z,16.20
2022-11-16T10:04:04.624Z,12.85
2022-11-16T10:06:48.872Z,15.15
2022-11-16T10:09:21.513Z,19.05
2022-11-16T10:12:17.054Z,14.55
2022-11-16T10:15:04.947Z,16.17
2022-11-16T10:17:48.650Z,15.40
2022-11-16T10:20:40.355Z,15.43
2022-11-16T10:23:18.548Z,14.85
2022-11-16T10:26:00.919Z,17.20
2022-11-16T10:28:52.860Z,17.15
2022-11-16T10:31:29.426Z,12.93
2022-11-16T10:34:01.595Z,13.45
2022-11-16T10:36:35.271Z,11.73
2022-11-16T10:41:43.191Z,11.80
2022-11-16T10:44:20.605Z,15.43
2022-11-16T10:46:59.074Z,12.95
2022-11-16T10:49:35.185Z,14.52
2022-11-16T10:52:05.351Z,11.48
2022-11-16T10:54:38.887Z,13.13
2022-11-16T10:57:17.427Z,12.13
2022-11-16T10:59:49.110Z,11.88
2022-11-16T11:02:37.441Z,15.98
2022-11-16T11:05:11.448Z,10.80
2022-11-16T11:07:42.532Z,18.58
2022-11-16T11:10:30.722Z,13.43
2022-11-16T11:13:20.516Z,9.82
2022-11-16T11:15:51.488Z,11.40
2022-11-16T11:18:29.780Z,12.75
2022-11-16T11:21:10.568Z,10.57
2022-11-16T11:23:46.809Z,18.77
2022-11-16T11:26:36.871Z,9.88
2022-11-16T11:29:23.200Z,9.77
2022-11-16T11:31:55.577Z,18.88
2022-11-16T11:34:28.171Z,10.73
2022-11-16T11:37:01.068Z,11.73
2022-11-16T11:42:26.475Z,13.93
2022-11-16T11:45:01.400Z,13.45
2022-11-16T11:47:59.687Z,9.10
2022-11-16T11:50:41.874Z,12.85
2022-11-16T11:53:23.630Z,9.63
2022-11-16T11:55:59.434Z,11.98
2022-11-16T11:58:32.907Z,13.13
2022-11-16T12:01:39.840Z,9.30
2022-11-16T12:04:31.471Z,12.70
2022-11-16T12:07:10.763Z,8.75
2022-11-16T12:09:49.139Z,11.27
2022-11-16T12:12:35.108Z,16.40
2022-11-16T12:15:23.709Z,11.95
2022-11-16T12:18:08.656Z,8.48
2022-11-16T12:20:50.677Z,14.20
2022-11-16T12:23:37.845Z,10.15
2022-11-16T12:26:14.698Z,7.00
2022-11-16T12:28:58.282Z,14.40
2022-11-16T12:31:56.340Z,12.82
2022-11-16T12:34:42.820Z,10.07
2022-11-16T12:37:19.324Z,10.70
2022-11-16T12:40:02.971Z,7.20
2022-11-16T12:42:41.370Z,9.35
2022-11-16T12:45:30.544Z,10.40
2022-11-16T12:48:30.706Z,7.32
2022-11-16T12:51:12.258Z,22.02
2022-11-16T12:53:56.349Z,8.80
2022-11-16T12:56:36.143Z,7.38
2022-11-16T12:59:24.976Z,6.50
2022-11-16T13:02:04.554Z,9.43
2022-11-16T13:04:41.124Z,12.07
2022-11-16T13:07:20.394Z,8.90
2022-11-16T13:09:54.074Z,10.15
2022-11-16T13:12:26.028Z,4.97
2022-11-16T13:14:58.634Z,9.30
2022-11-16T13:17:31.566Z,8.73
2022-11-16T13:20:21.469Z,9.63
2022-11-16T13:23:01.266Z,9.68
2022-11-16T13:25:39.340Z,8.10
2022-11-16T13:28:17.452Z,6.55
2022-11-16T13:30:54.659Z,8.38
2022-11-16T13:33:35.387Z,9.68
2022-11-16T13:36:37.928Z,9.38
2022-11-16T13:39:12.374Z,10.35
2022-11-16T13:41:45.895Z,8.35
2022-11-16T13:44:31.960Z,12.30
2022-11-16T13:47:06.479Z,8.93
2022-11-16T13:49:40.957Z,5.07
2022-11-16T13:52:23.543Z,8.52
2022-11-16T13:57:29.726Z,9.48
2022-11-16T14:00:13.298Z,8.63
2022-11-16T14:02:44.523Z,10.00
2022-11-16T14:05:18.304Z,9.52
2022-11-16T14:10:58.438Z,5.97
2022-11-16T14:13:47.315Z,11.70
2022-11-16T14:16:56.620Z,9.85
2022-11-16T14:19:55.295Z,7.45
2022-11-16T14:22:46.061Z,9.73
2022-11-16T14:25:32.350Z,9.75
2022-11-16T14:28:24.977Z,7.80
2022-11-16T14:31:12.663Z,9.32
2022-11-16T14:33:42.486Z,11.15
2022-11-16T14:36:13.644Z,7.57
2022-11-16T14:38:45.505Z,8.60
2022-11-16T14:41:22.784Z,6.03
2022-11-16T14:43:54.745Z,10.15
2022-11-16T14:46:30.719Z,10.40
2022-11-16T14:49:01.965Z,5.60
2022-11-16T14:51:34.835Z,11.90
2022-11-16T14:54:08.343Z,10.43
2022-11-16T14:56:38.532Z,7.45
2022-11-16T14:59:08.626Z,7.93
2022-11-16T15:01:42.769Z,9.93
2022-11-16T15:04:14.771Z,9.77
2022-11-16T15:06:48.621Z,8.35
2022-11-16T15:09:25.145Z,6.00
2022-11-16T15:12:07.679Z,6.50
2022-11-16T15:14:42.487Z,6.97
2022-11-16T15:17:18.991Z,8.90
2022-11-16T15:19:56.955Z,9.02
2022-11-16T15:22:30.525Z,11.93
2022-11-16T15:25:02.121Z,6.45
2022-11-16T15:27:39.302Z,9.43
2022-11-16T15:30:19.773Z,9.10
2022-11-16T15:32:53.577Z,11.20
2022-11-16T15:35:25.653Z,8.70
2022-11-16T15:38:06.167Z,9.68
2022-11-16T15:40:37.201Z,9.52
2022-11-16T15:43:09.078Z,10.40
2022-11-16T15:45:40.345Z,7.18
2022-11-16T15:48:18.677Z,5.72
2022-11-16T15:51:04.270Z,6.28
2022-11-16T15:53:40.381Z,9.88
2022-11-16T15:56:13.607Z,5.80
2022-11-16T15:58:44.921Z,8.30
2022-11-16T16:01:16.055Z,9.25
2022-11-16T16:03:57.974Z,11.82
2022-11-16T16:06:50.318Z,10.48
2022-11-16T16:09:30.688Z,14.52
2022-11-16T16:12:19.719Z,10.52
2022-11-16T16:14:50.439Z,10.13
2022-11-16T16:17:27.006Z,11.20
2022-11-16T16:20:00.903Z,8.90
2022-11-16T16:22:33.323Z,9.18
2022-11-16T16:25:03.541Z,10.68
2022-11-16T16:27:34.960Z,15.30
2022-11-16T16:30:08.663Z,14.63
2022-11-16T16:35:19.493Z,13.45
2022-11-16T16:37:52.097Z,12.88
2022-11-16T16:40:21.986Z,21.13
2022-11-16T16:42:53.266Z,9.10
2022-11-16T16:45:27.067Z,12.75
2022-11-16T16:50:28.477Z,13.25
2022-11-16T16:52:58.146Z,15.27
2022-11-16T16:55:28.937Z,12.68
2022-11-16T16:57:59.529Z,18.23
2022-11-16T17:00:29.394Z,17.00
2022-11-16T17:02:58.944Z,18.60
2022-11-16T17:05:34.012Z,26.92
2022-11-16T17:08:04.300Z,37.40
2022-11-16T17:10:33.894Z,23.48
2022-11-16T17:13:04.211Z,25.33
2022-11-16T17:15:33.782Z,13.23
2022-11-16T17:18:03.306Z,9.57
2022-11-16T17:20:35.613Z,10.10
2022-11-16T17:23:05.151Z,14.30
2022-11-16T17:25:35.704Z,15.93
2022-11-16T17:28:05.367Z,12.00
2022-11-16T17:30:34.882Z,10.07
2022-11-16T17:33:04.476Z,12.05
2022-11-16T17:35:36.630Z,13.63
2022-11-16T17:38:06.279Z,13.43
2022-11-16T17:40:35.942Z,14.50
2022-11-16T17:43:05.554Z,11.65
2022-11-16T17:45:35.099Z,10.07
2022-11-16T17:48:04.659Z,10.70
2022-11-16T17:50:37.012Z,14.10
2022-11-16T17:53:06.596Z,13.77
2022-11-16T17:55:37.146Z,15.40
2022-11-16T17:58:06.873Z,12.55
2022-11-16T18:00:36.431Z,16.35
2022-11-16T18:03:06.133Z,14.20
2022-11-16T18:05:38.547Z,12.00
2022-11-16T18:08:08.441Z,13.32
2022-11-16T18:10:38.855Z,14.85
2022-11-16T18:13:08.996Z,14.75
2022-11-16T18:15:42.359Z,16.23
2022-11-16T18:20:44.599Z,14.13
2022-11-16T18:23:14.313Z,14.02
2022-11-16T18:25:43.884Z,14.95
2022-11-16T18:28:13.382Z,11.48
2022-11-16T18:30:42.863Z,18.23
2022-11-16T18:33:12.366Z,13.15
2022-11-16T18:35:44.715Z,13.27
2022-11-16T18:38:14.533Z,17.45
2022-11-16T18:40:44.502Z,17.08
2022-11-16T18:43:15.613Z,18.98
2022-11-16T18:45:45.218Z,12.18
2022-11-16T18:48:14.740Z,12.07
2022-11-16T18:50:46.938Z,12.70
2022-11-16T18:53:16.456Z,9.50
2022-11-16T18:55:46.072Z,14.15
2022-11-16T18:58:43.512Z,11.98
2022-11-16T19:01:06.203Z,12.20
2022-11-16T19:03:36.650Z,12.30
2022-11-16T19:06:12.373Z,14.13
2022-11-16T19:08:43.041Z,11.45
2022-11-16T19:11:14.315Z,12.60
2022-11-16T19:13:45.778Z,10.45
2022-11-16T19:16:16.495Z,9.60
2022-11-16T19:18:46.018Z,10.02
2022-11-16T19:21:21.956Z,13.32
2022-11-16T19:23:53.282Z,12.63
2022-11-16T19:26:24.633Z,9.93
2022-11-16T19:28:55.478Z,11.77
2022-11-16T19:31:27.090Z,15.45
2022-11-16T19:33:57.708Z,9.32
2022-11-16T19:36:31.363Z,8.98
2022-11-16T19:39:00.994Z,9.48
2022-11-16T19:41:31.185Z,12.15
2022-11-16T19:44:02.793Z,9.80
2022-11-16T19:46:35.896Z,16.63
2022-11-16T19:49:05.726Z,14.30
2022-11-16T19:51:38.564Z,12.75
2022-11-16T19:54:09.369Z,12.30
2022-11-16T19:56:38.906Z,9.25
2022-11-16T19:59:08.489Z,10.55
2022-11-16T20:01:38.473Z,10.20
2022-11-16T20:04:09.268Z,10.18
2022-11-16T20:06:41.854Z,14.90
2022-11-16T20:09:13.928Z,12.65
2022-11-16T20:11:44.157Z,9.68
2022-11-16T20:14:15.027Z,12.38
2022-11-16T20:16:49.847Z,11.38
2022-11-16T20:19:20.888Z,11.85
2022-11-16T20:21:53.560Z,13.32
2022-11-16T20:24:23.314Z,13.73
2022-11-16T20:26:52.953Z,12.30
2022-11-16T20:29:22.734Z,16.60
2022-11-16T20:31:52.319Z,9.43
2022-11-16T20:34:22.307Z,15.95
2022-11-16T20:36:54.491Z,16.23
2022-11-16T20:39:24.338Z,16.25
2022-11-16T20:41:53.875Z,8.40
2022-11-16T20:44:23.772Z,12.18
2022-11-16T20:46:54.160Z,14.73
2022-11-16T20:49:23.899Z,16.38
2022-11-16T20:51:56.017Z,8.25
2022-11-16T20:54:25.685Z,12.35
2022-11-16T20:56:55.327Z,7.03
2022-11-16T20:59:25.213Z,11.48
2022-11-16T21:01:57.928Z,16.30
2022-11-16T21:04:27.528Z,10.23
2022-11-16T21:06:59.754Z,9.32
2022-11-16T21:09:49.345Z,8.00
2022-11-16T21:12:31.345Z,5.65
2022-11-16T21:15:00.904Z,10.10
2022-11-16T21:17:32.920Z,10.85
2022-11-16T21:20:25.688Z,10.60
2022-11-16T21:22:54.665Z,7.95
2022-11-16T21:25:24.279Z,9.13
2022-11-16T21:27:53.809Z,14.38
2022-11-16T21:30:23.417Z,6.88
2022-11-16T21:32:52.948Z,12.35
2022-11-16T21:35:26.257Z,12.55
2022-11-16T21:37:58.413Z,10.00
2022-11-16T21:40:27.949Z,8.30
2022-11-16T21:42:57.446Z,12.93
2022-11-16T21:45:26.956Z,7.63
2022-11-16T21:47:56.520Z,6.38
2022-11-16T21:50:31.776Z,14.93
2022-11-16T21:53:04.649Z,8.23
2022-11-16T21:55:34.250Z,8.95
2022-11-16T21:58:07.623Z,9.80
2022-11-16T22:00:37.292Z,7.10
2022-11-16T22:03:07.314Z,9.00
2022-11-16T22:05:49.346Z,9.15
2022-11-16T22:08:21.550Z,6.60
2022-11-16T22:10:53.456Z,5.88
2022-11-16T22:13:23.219Z,9.57
2022-11-16T22:15:52.723Z,7.07
2022-11-16T22:18:22.269Z,7.57
2022-11-16T22:20:52.247Z,10.00
2022-11-16T22:23:24.376Z,11.30
2022-11-16T22:25:54.249Z,7.90
2022-11-16T22:28:24.273Z,11.45
2022-11-16T22:31:02.004Z,9.30
2022-11-16T22:33:32.329Z,12.50
2022-11-16T22:36:02.294Z,8.93
2022-11-16T22:38:34.664Z,9.35
2022-11-16T22:41:04.329Z,11.52
2022-11-16T22:43:35.951Z,7.57
2022-11-16T22:46:07.720Z,14.88
2022-11-16T22:48:38.944Z,8.43
2022-11-16T22:51:14.814Z,11.20
2022-11-16T22:53:46.989Z,10.48
2022-11-16T22:56:16.578Z,10.20
2022-11-16T22:58:46.133Z,11.15
2022-11-16T23:01:15.656Z,13.25
2022-11-16T23:03:45.308Z,9.07
2022-11-16T23:06:15.374Z,14.07
2022-11-16T23:08:50.840Z,8.27
2022-11-16T23:11:34.405Z,8.98
2022-11-16T23:14:17.134Z,13.10
2022-11-16T23:16:47.000Z,7.50
2022-11-16T23:19:31.038Z,9.80
2022-11-16T23:24:58.587Z,8.23
2022-11-16T23:27:33.361Z,10.43
2022-11-16T23:30:11.928Z,13.45
2022-11-16T23:32:42.234Z,10.40
2022-11-16T23:35:12.773Z,9.57
2022-11-16T23:37:53.559Z,8.80
2022-11-16T23:40:27.109Z,10.30
2022-11-16T23:43:09.951Z,6.72
2022-11-16T23:45:39.549Z,7.70
2022-11-16T23:48:10.479Z,8.48
2022-11-16T23:50:41.062Z,11.40
2022-11-16T23:53:12.282Z,8.77
2022-11-16T23:55:44.753Z,6.47
2022-11-16T23:58:16.528Z,6.78
